sensor_id;sensor_type;location;lat;lon;timestamp;pressure;altitude;pressure_sealevel;temperature;humidity
25759;BME280;13604;52.496;13.456;2024-02-21T00:01:23;101569.78;;;6.56;100.00
25759;BME280;13604;52.496;13.456;2024-02-21T00:03:48;101581.50;;;6.63;100.00
25759;BME280;13604;52.496;13.456;2024-02-21T00:06:14;101585.88;;;6.64;100.00
25759;BME280;13604;52.496;13.456;2024-02-21T00:08:39;101563.16;;;6.48;100.00
25759;BME280;13604;52.496;13.456;2024-02-21T00:11:04;101592.28;;;6.69;100.00
25759;BME280;13604;52.496;13.456;2024-02-21T00:13:30;101571.47;;;6.68;100.00
25759;BME280;13604;52.496;13.456;2024-02-21T00:15:55;101574.16;;;6.69;100.00
25759;BME280;13604;52.496;13.456;2024-02-21T00:18:20;101583.75;;;6.70;100.00
25759;BME280;13604;52.496;13.456;2024-02-21T00:20:46;101555.03;;;6.55;100.00
25759;BME280;13604;52.496;13.456;2024-02-21T00:23:11;101580.59;;;6.74;100.00
25759;BME280;13604;52.496;13.456;2024-02-21T00:25:37;101557.97;;;6.60;100.00
25759;BME280;13604;52.496;13.456;2024-02-21T00:28:02;101573.97;;;6.78;100.00
25759;BME280;13604;52.496;13.456;2024-02-21T00:30:28;101557.97;;;6.72;100.00
25759;BME280;13604;52.496;13.456;2024-02-21T00:32:53;101563.91;;;6.71;100.00
25759;BME280;13604;52.496;13.456;2024-02-21T00:35:18;101564.63;;;6.68;100.00
25759;BME280;13604;52.496;13.456;2024-02-21T00:37:44;101556.03;;;6.57;100.00
25759;BME280;13604;52.496;13.456;2024-02-21T00:40:09;101566.09;;;6.65;100.00
25759;BME280;13604;52.496;13.456;2024-02-21T00:42:35;101539.75;;;6.47;100.00
25759;BME280;13604;52.496;13.456;2024-02-21T00:45:01;101534.56;;;6.47;100.00
25759;BME280;13604;52.496;13.456;2024-02-21T00:47:26;101560.56;;;6.60;100.00
25759;BME280;13604;52.496;13.456;2024-02-21T00:49:51;101558.09;;;6.61;100.00
25759;BME280;13604;52.496;13.456;2024-02-21T00:52:17;101535.69;;;6.50;100.00
25759;BME280;13604;52.496;13.456;2024-02-21T00:54:42;101520.81;;;6.48;100.00
25759;BME280;13604;52.496;13.456;2024-02-21T00:57:07;101521.75;;;6.48;100.00
25759;BME280;13604;52.496;13.456;2024-02-21T00:59:32;101550.44;;;6.63;100.00
25759;BME280;13604;52.496;13.456;2024-02-21T01:01:58;101544.91;;;6.70;100.00
25759;BME280;13604;52.496;13.456;2024-02-21T01:04:23;101529.38;;;6.70;100.00
25759;BME280;13604;52.496;13.456;2024-02-21T01:06:49;101537.59;;;6.76;100.00
25759;BME280;13604;52.496;13.456;2024-02-21T01:09:15;101530.97;;;6.80;100.00
25759;BME280;13604;52.496;13.456;2024-02-21T01:11:40;101539.50;;;6.79;100.00
25759;BME280;13604;52.496;13.456;2024-02-21T01:14:05;101536.25;;;6.81;100.00
25759;BME280;13604;52.496;13.456;2024-02-21T01:16:30;101532.31;;;6.75;100.00
25759;BME280;13604;52.496;13.456;2024-02-21T01:18:56;101529.13;;;6.79;100.00
25759;BME280;13604;52.496;13.456;2024-02-21T01:21:21;101528.47;;;6.81;100.00
25759;BME280;13604;52.496;13.456;2024-02-21T01:23:46;101507.44;;;6.65;100.00
25759;BME280;13604;52.496;13.456;2024-02-21T01:26:12;101530.19;;;6.81;100.00
25759;BME280;13604;52.496;13.456;2024-02-21T01:28:40;101511.03;;;6.67;100.00
25759;BME280;13604;52.496;13.456;2024-02-21T01:31:05;101518.78;;;6.79;100.00
25759;BME280;13604;52.496;13.456;2024-02-21T01:33:30;101515.88;;;6.74;100.00
25759;BME280;13604;52.496;13.456;2024-02-21T01:36:03;101494.25;;;6.74;100.00
25759;BME280;13604;52.496;13.456;2024-02-21T01:38:28;101510.78;;;6.76;100.00
25759;BME280;13604;52.496;13.456;2024-02-21T01:40:54;101506.88;;;6.81;100.00
25759;BME280;13604;52.496;13.456;2024-02-21T01:43:20;101503.59;;;6.84;100.00
25759;BME280;13604;52.496;13.456;2024-02-21T01:45:53;101507.19;;;6.86;100.00
25759;BME280;13604;52.496;13.456;2024-02-21T01:48:19;101476.72;;;6.70;100.00
25759;BME280;13604;52.496;13.456;2024-02-21T01:50:52;101475.78;;;6.69;100.00
25759;BME280;13604;52.496;13.456;2024-02-21T01:53:21;101507.41;;;6.89;100.00
25759;BME280;13604;52.496;13.456;2024-02-21T01:55:48;101508.53;;;6.92;100.00
25759;BME280;13604;52.496;13.456;2024-02-21T01:58:14;101495.03;;;6.96;100.00
25759;BME280;13604;52.496;13.456;2024-02-21T02:00:44;101500.75;;;6.92;100.00
25759;BME280;13604;52.496;13.456;2024-02-21T02:03:10;101473.34;;;6.82;100.00
25759;BME280;13604;52.496;13.456;2024-02-21T02:05:46;101494.91;;;6.95;100.00
25759;BME280;13604;52.496;13.456;2024-02-21T02:08:15;101466.91;;;6.77;100.00
25759;BME280;13604;52.496;13.456;2024-02-21T02:10:42;101487.63;;;6.89;100.00
25759;BME280;13604;52.496;13.456;2024-02-21T02:13:08;101469.47;;;6.77;100.00
25759;BME280;13604;52.496;13.456;2024-02-21T02:15:44;101451.84;;;6.72;100.00
25759;BME280;13604;52.496;13.456;2024-02-21T02:18:11;101472.09;;;6.89;100.00
25759;BME280;13604;52.496;13.456;2024-02-21T02:20:37;101465.19;;;6.90;100.00
25759;BME280;13604;52.496;13.456;2024-02-21T02:23:07;101478.69;;;6.86;100.00
25759;BME280;13604;52.496;13.456;2024-02-21T02:25:33;101448.78;;;6.66;100.00
25759;BME280;13604;52.496;13.456;2024-02-21T02:27:58;101465.56;;;6.71;100.00
25759;BME280;13604;52.496;13.456;2024-02-21T02:30:24;101468.63;;;6.65;100.00
25759;BME280;13604;52.496;13.456;2024-02-21T02:32:49;101464.34;;;6.54;100.00
25759;BME280;13604;52.496;13.456;2024-02-21T02:35:14;101446.66;;;6.36;100.00
25759;BME280;13604;52.496;13.456;2024-02-21T02:37:40;101457.47;;;6.42;100.00
25759;BME280;13604;52.496;13.456;2024-02-21T02:40:06;101456.38;;;6.39;100.00
25759;BME280;13604;52.496;13.456;2024-02-21T02:42:31;101448.72;;;6.29;100.00
25759;BME280;13604;52.496;13.456;2024-02-21T02:44:57;101447.69;;;6.26;100.00
25759;BME280;13604;52.496;13.456;2024-02-21T02:47:22;101429.81;;;6.06;100.00
25759;BME280;13604;52.496;13.456;2024-02-21T02:49:48;101456.69;;;6.20;100.00
25759;BME280;13604;52.496;13.456;2024-02-21T02:52:16;101456.56;;;6.18;100.00
25759;BME280;13604;52.496;13.456;2024-02-21T02:54:41;101434.63;;;6.01;100.00
25759;BME280;13604;52.496;13.456;2024-02-21T02:57:06;101449.91;;;6.10;100.00
25759;BME280;13604;52.496;13.456;2024-02-21T02:59:32;101441.97;;;6.07;100.00
25759;BME280;13604;52.496;13.456;2024-02-21T03:01:57;101436.56;;;6.04;100.00
25759;BME280;13604;52.496;13.456;2024-02-21T03:04:23;101429.13;;;5.97;100.00
25759;BME280;13604;52.496;13.456;2024-02-21T03:06:48;101432.94;;;6.02;100.00
25759;BME280;13604;52.496;13.456;2024-02-21T03:09:13;101429.69;;;6.04;100.00
25759;BME280;13604;52.496;13.456;2024-02-21T03:11:40;101423.97;;;6.08;100.00
25759;BME280;13604;52.496;13.456;2024-02-21T03:14:08;101422.16;;;6.07;100.00
25759;BME280;13604;52.496;13.456;2024-02-21T03:16:33;101395.34;;;5.95;100.00
25759;BME280;13604;52.496;13.456;2024-02-21T03:18:58;101398.28;;;5.88;100.00
25759;BME280;13604;52.496;13.456;2024-02-21T03:21:24;101410.69;;;6.04;100.00
25759;BME280;13604;52.496;13.456;2024-02-21T03:23:49;101389.16;;;5.81;100.00
25759;BME280;13604;52.496;13.456;2024-02-21T03:26:14;101388.94;;;5.78;100.00
25759;BME280;13604;52.496;13.456;2024-02-21T03:28:42;101412.44;;;5.93;100.00
25759;BME280;13604;52.496;13.456;2024-02-21T03:31:11;101400.63;;;5.85;100.00
25759;BME280;13604;52.496;13.456;2024-02-21T03:33:37;101384.22;;;5.72;100.00
25759;BME280;13604;52.496;13.456;2024-02-21T03:36:02;101413.25;;;5.92;100.00
25759;BME280;13604;52.496;13.456;2024-02-21T03:38:28;101409.09;;;5.94;100.00
25759;BME280;13604;52.496;13.456;2024-02-21T03:40:53;101382.53;;;5.73;100.00
25759;BME280;13604;52.496;13.456;2024-02-21T03:43:19;101390.16;;;5.71;100.00
25759;BME280;13604;52.496;13.456;2024-02-21T03:45:44;101403.56;;;5.78;100.00
25759;BME280;13604;52.496;13.456;2024-02-21T03:48:09;101405.03;;;5.86;100.00
25759;BME280;13604;52.496;13.456;2024-02-21T03:50:35;101402.97;;;5.82;100.00
25759;BME280;13604;52.496;13.456;2024-02-21T03:53:00;101373.88;;;5.72;100.00
25759;BME280;13604;52.496;13.456;2024-02-21T03:55:25;101384.66;;;5.79;100.00
25759;BME280;13604;52.496;13.456;2024-02-21T03:57:50;101380.28;;;5.78;100.00
25759;BME280;13604;52.496;13.456;2024-02-21T04:00:16;101357.56;;;5.62;100.00
25759;BME280;13604;52.496;13.456;2024-02-21T04:02:41;101348.22;;;5.52;100.00
25759;BME280;13604;52.496;13.456;2024-02-21T04:05:07;101369.25;;;5.68;100.00
25759;BME280;13604;52.496;13.456;2024-02-21T04:07:36;101370.84;;;5.66;100.00
25759;BME280;13604;52.496;13.456;2024-02-21T04:10:01;101298.66;;;5.22;100.00
25759;BME280;13604;52.496;13.456;2024-02-21T04:12:27;101344.88;;;5.53;100.00
25759;BME280;13604;52.496;13.456;2024-02-21T04:14:52;101353.84;;;5.58;100.00
25759;BME280;13604;52.496;13.456;2024-02-21T04:17:17;101389.06;;;5.80;100.00
25759;BME280;13604;52.496;13.456;2024-02-21T04:19:43;101340.47;;;5.52;100.00
25759;BME280;13604;52.496;13.456;2024-02-21T04:22:08;101318.09;;;5.52;100.00
25759;BME280;13604;52.496;13.456;2024-02-21T04:24:33;101315.88;;;5.45;100.00
25759;BME280;13604;52.496;13.456;2024-02-21T04:26:58;101349.47;;;5.69;100.00
25759;BME280;13604;52.496;13.456;2024-02-21T04:29:24;101338.72;;;5.63;100.00
25759;BME280;13604;52.496;13.456;2024-02-21T04:31:49;101337.66;;;5.61;100.00
25759;BME280;13604;52.496;13.456;2024-02-21T04:34:14;101334.31;;;5.62;100.00
25759;BME280;13604;52.496;13.456;2024-02-21T04:36:40;101280.28;;;5.41;100.00
25759;BME280;13604;52.496;13.456;2024-02-21T04:39:05;101332.63;;;5.62;100.00
25759;BME280;13604;52.496;13.456;2024-02-21T04:41:30;101289.69;;;5.52;100.00
25759;BME280;13604;52.496;13.456;2024-02-21T04:43:55;101302.19;;;5.58;100.00
25759;BME280;13604;52.496;13.456;2024-02-21T04:46:21;101273.53;;;5.43;100.00
25759;BME280;13604;52.496;13.456;2024-02-21T04:48:46;101258.47;;;5.38;100.00
25759;BME280;13604;52.496;13.456;2024-02-21T04:51:12;101289.50;;;5.61;100.00
25759;BME280;13604;52.496;13.456;2024-02-21T04:53:38;101291.50;;;5.53;100.00
25759;BME280;13604;52.496;13.456;2024-02-21T04:56:04;101293.66;;;5.59;100.00
25759;BME280;13604;52.496;13.456;2024-02-21T04:58:29;101293.19;;;5.53;100.00
25759;BME280;13604;52.496;13.456;2024-02-21T05:00:54;101266.31;;;5.39;100.00
25759;BME280;13604;52.496;13.456;2024-02-21T05:03:20;101276.78;;;5.52;100.00
25759;BME280;13604;52.496;13.456;2024-02-21T05:05:46;101208.16;;;5.21;100.00
25759;BME280;13604;52.496;13.456;2024-02-21T05:08:11;101247.69;;;5.43;100.00
25759;BME280;13604;52.496;13.456;2024-02-21T05:10:37;101251.28;;;5.45;100.00
25759;BME280;13604;52.496;13.456;2024-02-21T05:13:02;101273.88;;;5.60;100.00
25759;BME280;13604;52.496;13.456;2024-02-21T05:15:27;101287.38;;;5.67;100.00
25759;BME280;13604;52.496;13.456;2024-02-21T05:17:54;101269.34;;;5.69;100.00
25759;BME280;13604;52.496;13.456;2024-02-21T05:20:19;101243.31;;;5.42;100.00
25759;BME280;13604;52.496;13.456;2024-02-21T05:22:44;101276.47;;;5.71;100.00
25759;BME280;13604;52.496;13.456;2024-02-21T05:25:09;101243.88;;;5.50;100.00
25759;BME280;13604;52.496;13.456;2024-02-21T05:27:35;101249.47;;;5.44;100.00
25759;BME280;13604;52.496;13.456;2024-02-21T05:30:02;101264.78;;;5.53;100.00
25759;BME280;13604;52.496;13.456;2024-02-21T05:32:28;101245.00;;;5.53;100.00
25759;BME280;13604;52.496;13.456;2024-02-21T05:34:54;101253.88;;;5.57;100.00
25759;BME280;13604;52.496;13.456;2024-02-21T05:37:20;101252.63;;;5.64;100.00
25759;BME280;13604;52.496;13.456;2024-02-21T05:39:45;101255.78;;;5.60;100.00
25759;BME280;13604;52.496;13.456;2024-02-21T05:42:11;101275.56;;;5.71;100.00
25759;BME280;13604;52.496;13.456;2024-02-21T05:44:36;101274.31;;;5.78;100.00
25759;BME280;13604;52.496;13.456;2024-02-21T05:47:01;101282.53;;;5.84;100.00
25759;BME280;13604;52.496;13.456;2024-02-21T05:49:27;101242.97;;;5.61;100.00
25759;BME280;13604;52.496;13.456;2024-02-21T05:51:52;101243.44;;;5.67;100.00
25759;BME280;13604;52.496;13.456;2024-02-21T05:54:17;101244.75;;;5.62;100.00
25759;BME280;13604;52.496;13.456;2024-02-21T05:56:46;101278.81;;;5.80;100.00
25759;BME280;13604;52.496;13.456;2024-02-21T05:59:12;101252.41;;;5.72;100.00
25759;BME280;13604;52.496;13.456;2024-02-21T06:01:37;101265.00;;;5.80;100.00
25759;BME280;13604;52.496;13.456;2024-02-21T06:04:02;101249.94;;;5.74;100.00
25759;BME280;13604;52.496;13.456;2024-02-21T06:06:28;101268.25;;;5.89;100.00
25759;BME280;13604;52.496;13.456;2024-02-21T06:08:53;101243.44;;;5.79;100.00
25759;BME280;13604;52.496;13.456;2024-02-21T06:11:18;101237.34;;;5.79;100.00
25759;BME280;13604;52.496;13.456;2024-02-21T06:13:43;101239.16;;;5.80;100.00
25759;BME280;13604;52.496;13.456;2024-02-21T06:16:09;101251.28;;;5.93;100.00
25759;BME280;13604;52.496;13.456;2024-02-21T06:18:35;101253.03;;;5.94;100.00
25759;BME280;13604;52.496;13.456;2024-02-21T06:21:01;101239.59;;;5.86;100.00
25759;BME280;13604;52.496;13.456;2024-02-21T06:23:26;101248.56;;;5.91;100.00
25759;BME280;13604;52.496;13.456;2024-02-21T06:25:51;101211.28;;;5.76;100.00
25759;BME280;13604;52.496;13.456;2024-02-21T06:28:17;101241.25;;;5.85;100.00
25759;BME280;13604;52.496;13.456;2024-02-21T06:30:42;101203.75;;;5.67;100.00
25759;BME280;13604;52.496;13.456;2024-02-21T06:33:07;101239.38;;;5.83;100.00
25759;BME280;13604;52.496;13.456;2024-02-21T06:35:33;101211.06;;;5.72;100.00
25759;BME280;13604;52.496;13.456;2024-02-21T06:37:58;101233.94;;;5.92;100.00
25759;BME280;13604;52.496;13.456;2024-02-21T06:40:24;101240.81;;;6.03;100.00
25759;BME280;13604;52.496;13.456;2024-02-21T06:42:50;101227.44;;;5.97;100.00
25759;BME280;13604;52.496;13.456;2024-02-21T06:45:15;101220.72;;;5.99;100.00
25759;BME280;13604;52.496;13.456;2024-02-21T06:47:41;101240.56;;;6.12;100.00
25759;BME280;13604;52.496;13.456;2024-02-21T06:50:07;101243.03;;;6.10;100.00
25759;BME280;13604;52.496;13.456;2024-02-21T06:52:32;101235.97;;;6.07;100.00
25759;BME280;13604;52.496;13.456;2024-02-21T06:54:57;101228.00;;;6.04;100.00
25759;BME280;13604;52.496;13.456;2024-02-21T06:57:23;101215.97;;;6.05;100.00
25759;BME280;13604;52.496;13.456;2024-02-21T06:59:48;101252.34;;;6.32;100.00
25759;BME280;13604;52.496;13.456;2024-02-21T07:02:13;101222.47;;;6.12;100.00
25759;BME280;13604;52.496;13.456;2024-02-21T07:04:39;101247.72;;;6.28;100.00
25759;BME280;13604;52.496;13.456;2024-02-21T07:07:04;101237.06;;;6.23;100.00
25759;BME280;13604;52.496;13.456;2024-02-21T07:09:29;101237.66;;;6.19;100.00
25759;BME280;13604;52.496;13.456;2024-02-21T07:11:57;101260.28;;;6.35;100.00
25759;BME280;13604;52.496;13.456;2024-02-21T07:14:22;101228.78;;;6.15;100.00
25759;BME280;13604;52.496;13.456;2024-02-21T07:16:48;101228.88;;;6.17;100.00
25759;BME280;13604;52.496;13.456;2024-02-21T07:19:13;101258.97;;;6.40;100.00
25759;BME280;13604;52.496;13.456;2024-02-21T07:21:38;101217.72;;;6.18;100.00
25759;BME280;13604;52.496;13.456;2024-02-21T07:24:06;101263.31;;;6.41;100.00
25759;BME280;13604;52.496;13.456;2024-02-21T07:26:31;101231.22;;;6.25;100.00
25759;BME280;13604;52.496;13.456;2024-02-21T07:28:57;101215.97;;;6.17;100.00
25759;BME280;13604;52.496;13.456;2024-02-21T07:31:22;101251.50;;;6.44;100.00
25759;BME280;13604;52.496;13.456;2024-02-21T07:33:47;101215.00;;;6.28;100.00
25759;BME280;13604;52.496;13.456;2024-02-21T07:36:15;101233.19;;;6.41;100.00
25759;BME280;13604;52.496;13.456;2024-02-21T07:38:40;101213.72;;;6.47;100.00
25759;BME280;13604;52.496;13.456;2024-02-21T07:41:05;101230.78;;;6.56;100.00
25759;BME280;13604;52.496;13.456;2024-02-21T07:43:31;101226.06;;;6.51;100.00
25759;BME280;13604;52.496;13.456;2024-02-21T07:45:56;101227.84;;;6.52;100.00
25759;BME280;13604;52.496;13.456;2024-02-21T07:48:21;101199.34;;;6.38;100.00
25759;BME280;13604;52.496;13.456;2024-02-21T07:50:51;101218.19;;;6.49;100.00
25759;BME280;13604;52.496;13.456;2024-02-21T07:53:16;101213.94;;;6.50;100.00
25759;BME280;13604;52.496;13.456;2024-02-21T07:55:42;101202.81;;;6.39;100.00
25759;BME280;13604;52.496;13.456;2024-02-21T07:58:07;101212.13;;;6.49;100.00
25759;BME280;13604;52.496;13.456;2024-02-21T08:00:33;101224.78;;;6.57;100.00
25759;BME280;13604;52.496;13.456;2024-02-21T08:02:58;101218.41;;;6.52;100.00
25759;BME280;13604;52.496;13.456;2024-02-21T08:05:23;101196.66;;;6.37;100.00
25759;BME280;13604;52.496;13.456;2024-02-21T08:07:49;101220.53;;;6.58;100.00
25759;BME280;13604;52.496;13.456;2024-02-21T08:10:14;101235.19;;;6.71;100.00
25759;BME280;13604;52.496;13.456;2024-02-21T08:12:39;101234.81;;;6.78;100.00
25759;BME280;13604;52.496;13.456;2024-02-21T08:15:05;101228.16;;;6.81;100.00
25759;BME280;13604;52.496;13.456;2024-02-21T08:17:31;101230.97;;;6.85;100.00
25759;BME280;13604;52.496;13.456;2024-02-21T08:19:56;101221.06;;;6.79;100.00
25759;BME280;13604;52.496;13.456;2024-02-21T08:22:22;101219.78;;;6.86;100.00
25759;BME280;13604;52.496;13.456;2024-02-21T08:24:47;101178.94;;;6.68;100.00
25759;BME280;13604;52.496;13.456;2024-02-21T08:27:12;101224.81;;;6.96;100.00
25759;BME280;13604;52.496;13.456;2024-02-21T08:29:38;101208.09;;;6.91;100.00
25759;BME280;13604;52.496;13.456;2024-02-21T08:32:03;101237.78;;;7.09;100.00
25759;BME280;13604;52.496;13.456;2024-02-21T08:34:28;101201.31;;;6.93;100.00
25759;BME280;13604;52.496;13.456;2024-02-21T08:36:55;101214.59;;;7.11;100.00
25759;BME280;13604;52.496;13.456;2024-02-21T08:39:20;101207.41;;;7.20;100.00
25759;BME280;13604;52.496;13.456;2024-02-21T08:41:46;101190.28;;;7.22;100.00
25759;BME280;13604;52.496;13.456;2024-02-21T08:44:11;101206.16;;;7.40;100.00
25759;BME280;13604;52.496;13.456;2024-02-21T08:46:36;101208.53;;;7.37;100.00
25759;BME280;13604;52.496;13.456;2024-02-21T08:49:05;101194.66;;;7.36;100.00
25759;BME280;13604;52.496;13.456;2024-02-21T08:51:30;101224.28;;;7.53;100.00
25759;BME280;13604;52.496;13.456;2024-02-21T08:53:56;101183.50;;;7.24;100.00
25759;BME280;13604;52.496;13.456;2024-02-21T08:56:21;101189.69;;;7.40;100.00
25759;BME280;13604;52.496;13.456;2024-02-21T08:58:46;101202.16;;;7.45;100.00
25759;BME280;13604;52.496;13.456;2024-02-21T09:01:12;101196.06;;;7.71;100.00
25759;BME280;13604;52.496;13.456;2024-02-21T09:03:38;101227.19;;;8.13;100.00
25759;BME280;13604;52.496;13.456;2024-02-21T09:06:06;101228.75;;;8.24;100.00
25759;BME280;13604;52.496;13.456;2024-02-21T09:08:32;101215.13;;;8.14;100.00
25759;BME280;13604;52.496;13.456;2024-02-21T09:10:59;101216.94;;;8.01;100.00
25759;BME280;13604;52.496;13.456;2024-02-21T09:13:25;101209.38;;;8.04;100.00
25759;BME280;13604;52.496;13.456;2024-02-21T09:15:50;101215.03;;;7.99;100.00
25759;BME280;13604;52.496;13.456;2024-02-21T09:18:17;101226.13;;;8.09;100.00
25759;BME280;13604;52.496;13.456;2024-02-21T09:20:42;101232.72;;;8.04;100.00
25759;BME280;13604;52.496;13.456;2024-02-21T09:23:08;101215.88;;;7.98;100.00
25759;BME280;13604;52.496;13.456;2024-02-21T09:25:33;101186.31;;;7.96;100.00
25759;BME280;13604;52.496;13.456;2024-02-21T09:28:01;101183.94;;;7.99;100.00
25759;BME280;13604;52.496;13.456;2024-02-21T09:30:26;101184.31;;;8.05;100.00
25759;BME280;13604;52.496;13.456;2024-02-21T09:32:52;101201.59;;;8.33;100.00
25759;BME280;13604;52.496;13.456;2024-02-21T09:35:18;101194.56;;;8.45;100.00
25759;BME280;13604;52.496;13.456;2024-02-21T09:37:43;101190.31;;;8.45;100.00
25759;BME280;13604;52.496;13.456;2024-02-21T09:40:09;101202.75;;;8.51;100.00
25759;BME280;13604;52.496;13.456;2024-02-21T09:42:39;101188.25;;;8.55;100.00
25759;BME280;13604;52.496;13.456;2024-02-21T09:45:22;101193.03;;;8.77;100.00
25759;BME280;13604;52.496;13.456;2024-02-21T09:50:38;101185.97;;;9.04;100.00
25759;BME280;13604;52.496;13.456;2024-02-21T09:53:06;101184.88;;;9.30;100.00
25759;BME280;13604;52.496;13.456;2024-02-21T09:55:33;101190.22;;;9.48;100.00
25759;BME280;13604;52.496;13.456;2024-02-21T09:58:01;101188.34;;;9.31;100.00
25759;BME280;13604;52.496;13.456;2024-02-21T10:00:26;101195.16;;;9.44;100.00
25759;BME280;13604;52.496;13.456;2024-02-21T10:02:53;101198.81;;;9.62;100.00
25759;BME280;13604;52.496;13.456;2024-02-21T10:05:18;101201.03;;;9.71;100.00
25759;BME280;13604;52.496;13.456;2024-02-21T10:07:43;101167.34;;;9.57;100.00
25759;BME280;13604;52.496;13.456;2024-02-21T10:10:09;101224.63;;;9.74;100.00
25759;BME280;13604;52.496;13.456;2024-02-21T10:12:35;101199.72;;;9.48;100.00
25759;BME280;13604;52.496;13.456;2024-02-21T10:15:05;101199.00;;;9.50;100.00
25759;BME280;13604;52.496;13.456;2024-02-21T10:17:32;101199.63;;;9.61;100.00
25759;BME280;13604;52.496;13.456;2024-02-21T10:20:10;101177.50;;;9.53;100.00
25759;BME280;13604;52.496;13.456;2024-02-21T10:22:35;101179.56;;;9.44;100.00
25759;BME280;13604;52.496;13.456;2024-02-21T10:25:22;101193.56;;;9.46;100.00
25759;BME280;13604;52.496;13.456;2024-02-21T10:27:48;101200.63;;;9.48;100.00
25759;BME280;13604;52.496;13.456;2024-02-21T10:30:14;101177.03;;;9.45;100.00
25759;BME280;13604;52.496;13.456;2024-02-21T10:32:50;101198.78;;;9.77;99.07
25759;BME280;13604;52.496;13.456;2024-02-21T10:35:25;101177.75;;;9.57;98.40
25759;BME280;13604;52.496;13.456;2024-02-21T10:37:51;101204.59;;;9.73;99.05
25759;BME280;13604;52.496;13.456;2024-02-21T10:40:21;101207.78;;;9.67;99.39
25759;BME280;13604;52.496;13.456;2024-02-21T10:42:48;101202.34;;;9.79;99.44
25759;BME280;13604;52.496;13.456;2024-02-21T10:45:13;101170.47;;;9.83;97.88
25759;BME280;13604;52.496;13.456;2024-02-21T10:47:39;101194.09;;;10.03;97.05
25759;BME280;13604;52.496;13.456;2024-02-21T10:50:07;101184.66;;;10.05;96.55
25759;BME280;13604;52.496;13.456;2024-02-21T10:55:31;101182.97;;;10.05;96.66
25759;BME280;13604;52.496;13.456;2024-02-21T10:58:03;101180.63;;;10.10;95.66
25759;BME280;13604;52.496;13.456;2024-02-21T11:00:29;101172.72;;;9.92;96.94
25759;BME280;13604;52.496;13.456;2024-02-21T11:02:57;101185.88;;;9.95;97.75
25759;BME280;13604;52.496;13.456;2024-02-21T11:05:24;101168.06;;;9.86;98.63
25759;BME280;13604;52.496;13.456;2024-02-21T11:07:50;101162.19;;;9.74;98.66
25759;BME280;13604;52.496;13.456;2024-02-21T11:10:26;101172.03;;;9.80;99.27
25759;BME280;13604;52.496;13.456;2024-02-21T11:13:07;101161.44;;;9.76;100.00
25759;BME280;13604;52.496;13.456;2024-02-21T11:15:33;101145.00;;;9.61;100.00
25759;BME280;13604;52.496;13.456;2024-02-21T11:17:58;101148.00;;;9.52;100.00
25759;BME280;13604;52.496;13.456;2024-02-21T11:20:37;101141.16;;;9.86;100.00
25759;BME280;13604;52.496;13.456;2024-02-21T11:23:02;101139.88;;;10.43;97.28
25759;BME280;13604;52.496;13.456;2024-02-21T11:25:29;101114.09;;;10.82;94.52
25759;BME280;13604;52.496;13.456;2024-02-21T11:28:02;101082.69;;;11.33;88.49
25759;BME280;13604;52.496;13.456;2024-02-21T11:30:30;101092.25;;;11.34;86.88
25759;BME280;13604;52.496;13.456;2024-02-21T11:33:03;101090.13;;;11.26;88.39
25759;BME280;13604;52.496;13.456;2024-02-21T11:35:33;101121.75;;;11.89;86.19
25759;BME280;13604;52.496;13.456;2024-02-21T11:38:11;101090.81;;;12.16;81.89
25759;BME280;13604;52.496;13.456;2024-02-21T11:40:40;101104.03;;;12.81;80.32
25759;BME280;13604;52.496;13.456;2024-02-21T12:05:05;101063.44;;;17.67;nan
25759;BME280;13604;52.496;13.456;2024-02-21T12:09:59;100984.50;;;20.01;nan
25759;BME280;13604;52.496;13.456;2024-02-21T12:12:25;101033.72;;;19.92;nan
25759;BME280;13604;52.496;13.456;2024-02-21T12:14:56;101026.28;;;18.96;nan
25759;BME280;13604;52.496;13.456;2024-02-21T12:17:24;101042.13;;;17.98;nan
25759;BME280;13604;52.496;13.456;2024-02-21T12:19:50;101036.06;;;17.20;nan
25759;BME280;13604;52.496;13.456;2024-02-21T12:22:19;101031.06;;;15.62;nan
25759;BME280;13604;52.496;13.456;2024-02-21T12:24:44;101033.59;;;15.01;nan
25759;BME280;13604;52.496;13.456;2024-02-21T12:27:13;100980.84;;;14.38;nan
25759;BME280;13604;52.496;13.456;2024-02-21T12:29:38;101022.00;;;14.16;nan
25759;BME280;13604;52.496;13.456;2024-02-21T12:32:04;101011.38;;;13.87;nan
25759;BME280;13604;52.496;13.456;2024-02-21T12:34:29;100997.75;;;13.72;nan
25759;BME280;13604;52.496;13.456;2024-02-21T12:36:58;100981.03;;;14.69;nan
25759;BME280;13604;52.496;13.456;2024-02-21T12:39:23;100994.22;;;15.59;nan
25759;BME280;13604;52.496;13.456;2024-02-21T12:41:48;101009.75;;;16.47;nan
25759;BME280;13604;52.496;13.456;2024-02-21T12:44:13;101002.59;;;16.08;nan
25759;BME280;13604;52.496;13.456;2024-02-21T12:46:39;100987.91;;;15.52;nan
25759;BME280;13604;52.496;13.456;2024-02-21T12:49:05;100993.72;;;15.42;nan
25759;BME280;13604;52.496;13.456;2024-02-21T12:51:31;100955.81;;;15.02;nan
25759;BME280;13604;52.496;13.456;2024-02-21T12:53:56;100974.44;;;15.40;nan
25759;BME280;13604;52.496;13.456;2024-02-21T12:56:22;100991.88;;;17.46;nan
25759;BME280;13604;52.496;13.456;2024-02-21T12:58:47;100982.19;;;19.53;nan
25759;BME280;13604;52.496;13.456;2024-02-21T13:02:38;100977.00;;;17.48;50.23
25759;BME280;13604;52.496;13.456;2024-02-21T13:05:04;100971.94;;;17.57;49.57
25759;BME280;13604;52.496;13.456;2024-02-21T13:07:30;100960.47;;;19.08;47.58
25759;BME280;13604;52.496;13.456;2024-02-21T13:09:57;100930.59;;;19.84;44.53